Time;durP1;ratioP1;P1;durP2;ratioP2;P2;SDS_P1;SDS_P2;PMS_P1;PMS_P2;Temp;Humidity;BMP_temperature;BMP_pressure;BME280_temperature;BME280_humidity;BME280_pressure;Samples;Min_cycle;Max_cycle;Signal;HPM_P1;HPM_P2
2023/07/05 00:01:30;;;;;;;7.62;5.28;;;;;;;27.76;44.72;99638.81;4497598;31;33756;-74
2023/07/05 00:03:58;;;;;;;9.18;5.47;;;;;;;27.75;44.44;99650.06;4485902;31;33712;-74
2023/07/05 00:06:25;;;;;;;8.00;5.30;;;;;;;27.71;44.23;99636.84;4481141;32;33071;-74
2023/07/05 00:08:53;;;;;;;10.30;5.30;;;;;;;27.69;44.10;99633.50;4482043;32;33150;-74
2023/07/05 00:11:20;;;;;;;9.60;5.50;;;;;;;27.65;44.04;99626.91;4483514;32;33675;-73
2023/07/05 00:13:48;;;;;;;10.50;5.95;;;;;;;27.63;43.99;99640.03;4483252;32;34443;-73
2023/07/05 00:16:15;;;;;;;9.00;5.75;;;;;;;27.60;43.97;99637.78;4483143;32;32970;-73
2023/07/05 00:18:43;;;;;;;7.65;5.65;;;;;;;27.58;43.94;99634.50;4482435;32;34712;-73
2023/07/05 00:21:11;;;;;;;9.07;5.82;;;;;;;27.56;43.83;99636.69;4483029;32;35405;-72
2023/07/05 00:23:39;;;;;;;11.80;5.60;;;;;;;27.55;43.73;99628.69;4483272;32;33708;-73
2023/07/05 00:26:07;;;;;;;9.30;5.55;;;;;;;27.52;43.74;99631.97;4483246;32;33312;-74
2023/07/05 00:28:34;;;;;;;9.50;6.28;;;;;;;27.51;43.74;99624.81;4485025;32;34453;-69
2023/07/05 00:31:02;;;;;;;8.60;6.28;;;;;;;27.49;43.67;99627.81;4484987;32;33964;-72
2023/07/05 00:33:31;;;;;;;10.55;5.78;;;;;;;27.48;43.63;99631.66;4484085;32;34517;-72
2023/07/05 00:35:58;;;;;;;10.45;6.00;;;;;;;27.45;43.55;99624.75;4484876;32;33541;-72
2023/07/05 00:38:28;;;;;;;10.32;5.25;;;;;;;27.43;43.55;99628.84;4485007;32;33829;-73
2023/07/05 00:40:56;;;;;;;8.68;5.82;;;;;;;27.41;43.56;99628.28;4484844;32;33919;-73
2023/07/05 00:43:24;;;;;;;9.25;5.53;;;;;;;27.39;43.53;99634.03;4484769;32;33874;-74
2023/07/05 00:46:03;;;;;;;9.80;6.03;;;;;;;27.38;43.52;99632.38;4485028;32;34339;-69
2023/07/05 00:48:36;;;;;;;9.97;6.07;;;;;;;27.34;43.60;99639.44;4485257;32;34718;-75
2023/07/05 00:51:06;;;;;;;9.25;5.78;;;;;;;27.35;43.61;99629.31;4484964;32;34428;-71
2023/07/05 00:53:34;;;;;;;8.93;5.62;;;;;;;27.31;43.59;99629.00;4470955;32;33696;-71
2023/07/05 00:56:20;;;;;;;8.40;5.65;;;;;;;27.31;43.58;99628.16;4483752;32;33361;-66
2023/07/05 00:58:48;;;;;;;10.55;5.82;;;;;;;27.32;43.56;99621.59;4483639;32;32845;-71
2023/07/05 01:01:16;;;;;;;9.15;5.78;;;;;;;27.30;43.51;99630.06;4484850;32;34734;-75
2023/07/05 01:03:44;;;;;;;10.25;6.18;;;;;;;27.27;43.50;99630.56;4483568;32;33532;-67
2023/07/05 01:06:14;;;;;;;7.55;5.28;;;;;;;27.26;43.49;99628.94;4470696;32;33434;-72
2023/07/05 01:08:41;;;;;;;8.35;5.75;;;;;;;27.25;43.46;99623.72;4483527;32;34237;-74
2023/07/05 01:11:14;;;;;;;9.38;5.65;;;;;;;27.23;43.41;99623.94;4484786;32;34801;-73
2023/07/05 01:13:52;;;;;;;8.85;5.57;;;;;;;27.21;43.46;99623.41;4471173;32;33798;-74
2023/07/05 01:16:41;;;;;;;8.00;5.55;;;;;;;27.18;43.42;99619.25;4483700;32;33063;-71
2023/07/05 01:19:09;;;;;;;;;;;;;;;27.18;43.39;99621.16;4483424;32;34813;-73
2023/07/05 01:21:49;;;;;;;9.48;6.55;;;;;;;27.27;43.14;99619.63;4484789;32;34291;-69
2023/07/05 01:24:35;;;;;;;9.80;5.72;;;;;;;27.16;43.27;99624.16;4483497;32;34165;-74
2023/07/05 01:27:31;;;;;;;8.90;5.20;;;;;;;27.11;43.35;99621.38;4484679;32;34168;-74
2023/07/05 01:30:21;;;;;;;9.07;5.40;;;;;;;27.11;43.38;99623.28;4484543;31;33985;-72
2023/07/05 01:33:03;;;;;;;9.18;5.70;;;;;;;27.07;43.35;99616.62;4484515;32;34023;-75
2023/07/05 01:35:34;;;;;;;11.20;5.35;;;;;;;27.07;43.35;99616.62;4471332;32;33625;-72
2023/07/05 01:38:04;;;;;;;9.63;5.90;;;;;;;27.04;43.39;99617.12;4470654;32;34192;-74
2023/07/05 01:40:32;;;;;;;8.27;5.72;;;;;;;27.03;43.38;99610.00;4483398;32;33954;-73
2023/07/05 01:43:01;;;;;;;9.93;6.00;;;;;;;27.01;43.37;99618.47;4484699;32;33333;-74
2023/07/05 01:45:59;;;;;;;7.30;5.10;;;;;;;27.00;43.33;99618.72;4470406;32;33679;-74
2023/07/05 01:48:40;;;;;;;8.48;5.53;;;;;;;27.03;43.23;99616.28;4457274;31;34037;-73
2023/07/05 01:51:28;;;;;;;9.15;5.28;;;;;;;27.00;43.22;99615.97;4483328;32;33653;-75
2023/07/05 01:54:10;;;;;;;7.85;5.78;;;;;;;26.96;43.24;99611.03;4486650;31;33686;-69
2023/07/05 01:56:50;;;;;;;9.85;5.72;;;;;;;26.96;43.20;99612.94;4499050;31;33756;-73
2023/07/05 01:59:19;;;;;;;8.95;5.65;;;;;;;26.93;43.21;99617.00;4500119;31;33277;-75
2023/07/05 02:01:47;;;;;;;8.23;5.93;;;;;;;26.91;43.20;99612.87;4486178;31;33725;-73
2023/07/05 02:04:15;;;;;;;9.25;5.82;;;;;;;26.90;43.15;99612.03;4486065;31;34042;-75
2023/07/05 02:06:44;;;;;;;9.10;5.68;;;;;;;26.89;43.19;99612.28;4486094;31;33607;-73
2023/07/05 02:09:13;;;;;;;7.30;4.97;;;;;;;26.88;43.13;99608.72;4499049;31;33255;-75
2023/07/05 02:11:41;;;;;;;8.38;5.05;;;;;;;26.86;43.15;99602.69;4500155;31;33745;-75
2023/07/05 02:14:08;;;;;;;8.20;5.45;;;;;;;26.86;43.15;99602.69;4498855;31;35681;-74
2023/07/05 02:16:38;;;;;;;12.60;5.75;;;;;;;26.85;43.11;99609.22;4498823;31;34480;-75
2023/07/05 02:19:06;;;;;;;;;;;;;;;26.84;43.09;99604.00;4500294;31;35082;-74
2023/07/05 02:21:34;;;;;;;8.77;5.60;;;;;;;26.94;42.87;99604.13;4500198;31;33581;-72
2023/07/05 02:24:02;;;;;;;7.15;4.82;;;;;;;26.84;42.99;99602.09;4498841;31;34424;-74
2023/07/05 02:26:29;;;;;;;9.70;5.32;;;;;;;26.80;43.11;99597.37;4499914;31;33952;-74
2023/07/05 02:28:57;;;;;;;11.02;5.43;;;;;;;26.79;43.12;99607.50;4500050;31;34127;-73
2023/07/05 02:31:25;;;;;;;10.02;5.93;;;;;;;26.79;43.11;99606.69;4498990;31;33755;-72
2023/07/05 02:33:52;;;;;;;10.93;6.03;;;;;;;26.77;43.11;99603.38;4499848;31;34669;-74
2023/07/05 02:36:20;;;;;;;8.15;5.45;;;;;;;26.76;43.11;99609.91;4499959;31;33774;-73
2023/07/05 02:38:48;;;;;;;9.07;5.22;;;;;;;26.75;43.04;99603.63;4499813;31;34128;-71
2023/07/05 02:41:15;;;;;;;9.30;5.28;;;;;;;26.76;42.97;99601.69;4499597;31;34271;-72
2023/07/05 02:43:43;;;;;;;9.10;5.20;;;;;;;26.75;42.96;99602.78;4499872;31;34657;-72
2023/07/05 02:46:13;;;;;;;9.15;5.93;;;;;;;26.73;42.92;99599.50;4499889;31;33964;-72
2023/07/05 02:48:40;;;;;;;8.55;5.28;;;;;;;26.71;42.86;99603.28;4499640;31;33549;-73
2023/07/05 02:51:08;;;;;;;7.93;5.90;;;;;;;26.69;42.89;99593.69;4498111;31;32811;-72
2023/07/05 02:53:36;;;;;;;9.00;5.75;;;;;;;26.68;42.88;99601.06;4499653;31;33914;-72
2023/07/05 02:56:03;;;;;;;8.13;4.97;;;;;;;26.67;42.87;99593.94;4483772;32;33860;-72
2023/07/05 02:58:31;;;;;;;9.18;5.40;;;;;;;26.67;42.89;99598.56;4483831;32;33174;-71
2023/07/05 03:00:59;;;;;;;8.48;5.80;;;;;;;26.66;42.87;99597.75;4483755;32;33497;-74
2023/07/05 03:03:26;;;;;;;10.75;5.37;;;;;;;26.65;42.88;99607.03;4483712;32;33980;-73
2023/07/05 03:05:55;;;;;;;11.05;5.32;;;;;;;26.64;42.85;99604.56;4483624;32;35009;-73
2023/07/05 03:08:25;;;;;;;8.40;5.57;;;;;;;26.63;42.80;99606.47;4483817;32;33328;-73
2023/07/05 03:10:56;;;;;;;11.05;5.20;;;;;;;26.63;42.78;99603.75;4483802;32;33856;-73
2023/07/05 03:13:29;;;;;;;10.40;5.62;;;;;;;26.63;42.76;99605.66;4483944;32;33666;-72
2023/07/05 03:15:57;;;;;;;8.13;5.40;;;;;;;26.60;42.78;99601.50;4469523;32;34053;-73
2023/07/05 03:18:25;;;;;;;8.80;5.05;;;;;;;26.60;42.77;99600.69;4483640;32;33007;-73
2023/07/05 03:20:53;;;;;;;6.65;4.78;;;;;;;26.58;42.77;99595.47;4483818;32;33832;-73
2023/07/05 03:23:20;;;;;;;8.27;5.30;;;;;;;26.57;42.75;99596.53;4483353;32;34906;-73
2023/07/05 03:26:08;;;;;;;8.13;4.95;;;;;;;26.57;42.75;99599.25;4483437;32;34839;-70
2023/07/05 03:28:36;;;;;;;10.00;5.75;;;;;;;26.59;42.74;99604.50;4483471;32;34266;-71
2023/07/05 03:31:12;;;;;;;11.32;5.93;;;;;;;26.56;42.74;99600.34;4482278;32;33802;-73
2023/07/05 03:33:40;;;;;;;8.35;5.12;;;;;;;26.56;42.76;99594.88;4483357;32;34792;-74
2023/07/05 03:36:11;;;;;;;8.60;5.80;;;;;;;26.52;42.78;99599.19;4469144;32;33914;-74
2023/07/05 03:38:38;;;;;;;9.75;5.50;;;;;;;26.52;42.84;99606.56;4483367;32;33162;-62
2023/07/05 03:41:13;;;;;;;8.07;5.65;;;;;;;26.53;42.87;99605.50;4483237;32;33921;-63
2023/07/05 03:43:42;;;;;;;9.60;4.87;;;;;;;26.52;42.90;99603.84;4485185;32;34128;-72
2023/07/05 03:46:10;;;;;;;8.98;5.80;;;;;;;26.53;42.89;99605.50;4485493;32;34071;-69
2023/07/05 03:48:40;;;;;;;9.00;5.47;;;;;;;26.52;42.93;99612.03;4485229;32;34058;-69
2023/07/05 03:51:12;;;;;;;7.90;5.20;;;;;;;26.51;42.95;99615.88;4484220;32;33819;-64
2023/07/05 03:53:40;;;;;;;9.65;5.28;;;;;;;26.50;42.96;99617.78;4485763;31;33506;-67
2023/07/05 03:56:08;;;;;;;10.45;5.62;;;;;;;26.50;42.95;99611.47;4500890;31;34545;-62
2023/07/05 03:58:36;;;;;;;9.65;6.03;;;;;;;26.48;42.95;99608.16;4499950;31;34476;-73
2023/07/05 04:01:19;;;;;;;8.63;5.60;;;;;;;26.48;42.95;99614.44;4500966;31;33877;-71
2023/07/05 04:03:49;;;;;;;13.25;6.25;;;;;;;26.50;42.92;99614.22;4487103;31;34123;-75
2023/07/05 04:06:17;;;;;;;13.02;6.00;;;;;;;26.47;42.90;99611.97;4501119;31;33619;-74
2023/07/05 04:08:44;;;;;;;10.13;6.28;;;;;;;26.48;42.89;99610.88;4500814;31;34240;-70
2023/07/05 04:11:12;;;;;;;8.38;5.55;;;;;;;26.47;42.90;99603.78;4501010;31;33466;-71
2023/07/05 04:13:39;;;;;;;11.23;6.32;;;;;;;26.47;42.95;99604.59;4500971;31;34828;-73
2023/07/05 04:16:15;;;;;;;9.25;5.12;;;;;;;26.47;42.97;99606.50;4499646;31;34008;-75
2023/07/05 04:18:44;;;;;;;10.63;5.70;;;;;;;26.44;43.04;99613.31;4499851;31;33442;-73
2023/07/05 04:21:11;;;;;;;10.20;6.70;;;;;;;26.45;43.07;99610.31;4500686;31;34079;-69
2023/07/05 04:23:39;;;;;;;8.93;5.50;;;;;;;26.44;43.12;99613.31;4500929;31;33947;-70
2023/07/05 04:26:08;;;;;;;9.45;5.70;;;;;;;26.44;43.21;99621.53;4500784;31;34102;-73
2023/07/05 04:28:36;;;;;;;10.35;5.95;;;;;;;26.43;43.23;99612.47;4500734;31;34213;-65
2023/07/05 04:31:07;;;;;;;;;;;;;;;26.44;43.31;99624.28;4486766;31;33425;-70
2023/07/05 04:33:35;;;;;;;11.48;5.97;;;;;;;26.54;43.11;99618.94;4485253;32;34242;-65
2023/07/05 04:36:03;;;;;;;10.13;5.60;;;;;;;26.47;43.35;99628.41;4484936;32;34558;-64
2023/07/05 04:38:33;;;;;;;10.23;5.82;;;;;;;26.44;43.51;99627.00;4485156;32;33966;-69
2023/07/05 04:41:01;;;;;;;10.60;6.20;;;;;;;26.43;43.58;99626.16;4483750;32;34091;-67
2023/07/05 04:43:29;;;;;;;8.52;5.78;;;;;;;26.45;43.72;99628.66;4484981;32;33596;-68
2023/07/05 04:45:57;;;;;;;12.15;6.50;;;;;;;26.46;43.81;99627.56;4484935;32;33791;-66
2023/07/05 04:48:26;;;;;;;11.73;6.15;;;;;;;26.44;43.89;99627.84;4489854;31;32870;-72
2023/07/05 04:50:54;;;;;;;9.90;6.53;;;;;;;26.46;44.05;99624.84;4499387;31;35549;-63
2023/07/05 04:53:23;;;;;;;9.25;6.37;;;;;;;26.47;44.20;99639.34;4499968;31;34731;-63
2023/07/05 04:55:52;;;;;;;10.70;6.87;;;;;;;26.49;44.29;99639.91;4471915;32;33820;-63
2023/07/05 04:58:20;;;;;;;10.32;7.20;;;;;;;26.48;44.43;99633.59;4483604;32;33987;-63
2023/07/05 05:00:49;;;;;;;10.95;6.32;;;;;;;26.48;44.50;99628.13;4483631;32;34090;-67
2023/07/05 05:03:20;;;;;;;9.73;6.95;;;;;;;26.50;44.61;99631.47;4485005;32;33596;-74
2023/07/05 05:05:53;;;;;;;10.05;6.90;;;;;;;26.51;44.77;99637.75;4484753;32;33632;-63
2023/07/05 05:08:21;;;;;;;11.30;7.18;;;;;;;26.50;44.92;99645.13;4483551;32;34301;-67
2023/07/05 05:11:03;;;;;;;10.40;6.95;;;;;;;26.53;44.89;99641.88;4484540;32;33746;-70
2023/07/05 05:13:32;;;;;;;14.50;7.18;;;;;;;26.53;45.06;99646.53;4484733;32;33883;-73
2023/07/05 05:15:59;;;;;;;12.13;7.10;;;;;;;26.55;45.17;99638.91;4470540;32;33897;-72
2023/07/05 05:18:28;;;;;;;10.73;7.07;;;;;;;26.55;45.25;99636.19;4484715;32;33426;-70
2023/07/05 05:20:57;;;;;;;11.43;7.10;;;;;;;26.55;45.25;99636.19;4484784;32;34170;-71
2023/07/05 05:23:25;;;;;;;13.62;6.93;;;;;;;26.57;45.22;99632.09;4484453;32;33991;-73
2023/07/05 05:25:52;;;;;;;11.95;7.55;;;;;;;26.57;45.27;99640.31;4484591;32;34098;-71
2023/07/05 05:28:20;;;;;;;11.43;7.43;;;;;;;26.58;45.38;99633.78;4483389;32;33589;-63
2023/07/05 05:30:48;;;;;;;10.27;7.60;;;;;;;26.59;45.38;99635.44;4483250;32;33860;-63
2023/07/05 05:33:16;;;;;;;13.60;7.43;;;;;;;26.60;45.48;99634.34;4484471;32;34807;-66
2023/07/05 05:35:50;;;;;;;11.98;8.00;;;;;;;26.60;45.47;99631.59;4484469;32;34294;-62
2023/07/05 05:38:18;;;;;;;11.73;7.10;;;;;;;26.61;45.46;99638.72;4484551;32;34691;-63
2023/07/05 05:40:48;;;;;;;11.35;7.10;;;;;;;26.62;45.46;99634.91;4484633;32;34128;-62
2023/07/05 05:43:17;;;;;;;12.15;7.70;;;;;;;26.63;45.50;99631.12;4484397;32;34782;-64
2023/07/05 05:45:44;;;;;;;10.05;7.10;;;;;;;26.64;45.45;99632.75;4483336;32;35239;-74
2023/07/05 05:48:12;;;;;;;11.48;7.30;;;;;;;26.66;45.42;99630.59;4484535;32;33541;-75
2023/07/05 05:50:40;;;;;;;10.52;7.10;;;;;;;26.66;45.44;99625.13;4484329;32;34089;-73
2023/07/05 05:53:10;;;;;;;15.60;7.18;;;;;;;26.68;45.45;99628.44;4484849;32;33915;-73
2023/07/05 05:55:38;;;;;;;9.50;6.62;;;;;;;26.69;45.36;99638.31;4497753;31;33998;-74
2023/07/05 05:58:06;;;;;;;9.88;6.75;;;;;;;26.70;45.37;99628.19;4500136;31;34178;-72
2023/07/05 06:00:34;;;;;;;11.32;7.18;;;;;;;26.71;45.38;99621.63;4500196;31;33763;-62
2023/07/05 06:03:02;;;;;;;9.80;6.68;;;;;;;26.71;45.39;99622.44;4500405;31;33890;-68
2023/07/05 06:05:31;;;;;;;10.57;6.95;;;;;;;26.74;45.46;99625.78;4498847;31;34035;-63
2023/07/05 06:07:58;;;;;;;12.05;7.30;;;;;;;26.72;45.43;99623.31;4499071;31;33373;-73
2023/07/05 06:10:26;;;;;;;9.93;6.45;;;;;;;26.75;45.33;99619.22;4500034;31;33939;-72
2023/07/05 06:12:54;;;;;;;9.75;6.62;;;;;;;26.74;45.33;99621.13;4500057;31;33787;-71
2023/07/05 06:15:21;;;;;;;13.02;6.62;;;;;;;26.77;45.31;99611.59;4500115;31;33915;-72
2023/07/05 06:17:49;;;;;;;11.30;6.55;;;;;;;26.77;45.31;99615.16;4500284;31;34158;-73
2023/07/05 06:20:17;;;;;;;10.60;6.70;;;;;;;26.77;45.31;99614.34;4497966;31;32742;-70
2023/07/05 06:22:44;;;;;;;12.27;7.25;;;;;;;26.78;45.47;99614.06;4499960;31;34751;-74
2023/07/05 06:25:12;;;;;;;10.43;7.10;;;;;;;26.80;45.54;99611.06;4499777;31;34810;-75
2023/07/05 06:27:40;;;;;;;17.08;7.35;;;;;;;26.80;45.74;99606.41;4499876;31;33401;-73
2023/07/05 06:30:08;;;;;;;10.82;6.60;;;;;;;26.81;45.67;99615.44;4497042;31;82306;-71
2023/07/05 06:32:36;;;;;;;9.90;7.10;;;;;;;26.82;45.62;99608.91;4499952;31;34656;-73
2023/07/05 06:35:03;;;;;;;9.38;6.55;;;;;;;26.83;45.74;99614.13;4499840;31;34097;-72
2023/07/05 06:37:31;;;;;;;11.38;6.90;;;;;;;26.84;45.76;99601.28;4499852;31;34262;-71
2023/07/05 06:39:59;;;;;;;10.70;7.60;;;;;;;26.85;45.77;99622.09;4499796;31;33928;-65
2023/07/05 06:42:26;;;;;;;10.45;7.00;;;;;;;26.85;45.98;99611.13;4499601;31;34938;-68
2023/07/05 06:44:58;;;;;;;11.73;7.00;;;;;;;26.86;45.90;99610.91;4500070;31;33641;-73
2023/07/05 06:47:26;;;;;;;8.88;5.97;;;;;;;26.87;45.99;99614.47;4497132;31;33118;-63
2023/07/05 06:49:53;;;;;;;11.77;7.50;;;;;;;26.87;46.17;99609.00;4490847;31;34455;-70
2023/07/05 06:52:21;;;;;;;10.55;6.60;;;;;;;26.88;46.24;99602.41;4491060;31;33667;-69
2023/07/05 06:54:49;;;;;;;9.45;6.60;;;;;;;26.88;46.45;99605.97;4495983;31;34191;-70
2023/07/05 06:57:17;;;;;;;11.43;7.30;;;;;;;26.89;46.39;99601.34;4492886;31;34058;-72
2023/07/05 06:59:45;;;;;;;11.60;7.85;;;;;;;26.91;46.68;99607.41;4489521;31;33989;-71
2023/07/05 07:02:13;;;;;;;12.90;8.30;;;;;;;26.94;47.49;99607.69;4495163;31;34927;-71
2023/07/05 07:04:40;;;;;;;16.00;9.40;;;;;;;26.93;47.49;99610.69;4499398;31;33920;-74
2023/07/05 07:07:08;;;;;;;12.35;8.30;;;;;;;26.96;47.37;99607.47;4499673;31;33064;-74
2023/07/05 07:09:36;;;;;;;11.25;7.55;;;;;;;26.96;47.37;99607.47;4499337;31;33860;-67
2023/07/05 07:12:05;;;;;;;11.00;6.85;;;;;;;26.96;47.21;99602.81;4499437;31;34695;-68
2023/07/05 07:14:33;;;;;;;12.83;7.60;;;;;;;26.99;47.03;99595.16;4494320;31;33005;-63
2023/07/05 07:17:01;;;;;;;15.50;7.57;;;;;;;27.00;46.98;99597.66;4476867;31;32852;-71
2023/07/05 07:19:28;;;;;;;13.05;8.05;;;;;;;27.01;46.88;99593.00;4501429;31;33316;-67
2023/07/05 07:21:56;;;;;;;12.60;7.90;;;;;;;27.02;46.92;99600.13;4497555;31;34826;-70
2023/07/05 07:24:24;;;;;;;11.75;7.62;;;;;;;27.01;46.95;99596.56;4497940;31;33924;-69
2023/07/05 07:26:52;;;;;;;11.73;6.85;;;;;;;27.03;46.95;99599.88;4499300;31;33492;-71
2023/07/05 07:29:20;;;;;;;10.20;6.47;;;;;;;27.03;46.87;99597.13;4485422;32;34610;-67
2023/07/05 07:31:48;;;;;;;10.13;6.68;;;;;;;27.04;46.75;99598.78;4494627;31;34846;-70
2023/07/05 07:34:16;;;;;;;9.13;6.70;;;;;;;27.04;46.66;99598.78;4493868;31;34505;-71
2023/07/05 07:36:45;;;;;;;10.13;6.78;;;;;;;27.05;46.61;99596.87;4501000;31;34139;-67
2023/07/05 07:39:14;;;;;;;12.27;7.40;;;;;;;27.06;46.56;99598.53;4497664;31;34573;-71
2023/07/05 07:41:41;;;;;;;8.68;6.75;;;;;;;27.06;46.50;99596.63;4485341;32;34180;-67
2023/07/05 07:44:10;;;;;;;11.20;6.15;;;;;;;27.07;46.47;99598.28;4485222;32;34661;-67
2023/07/05 07:46:38;;;;;;;8.57;6.07;;;;;;;27.08;46.47;99596.34;4485189;32;34249;-68
2023/07/05 07:49:06;;;;;;;12.00;6.68;;;;;;;27.09;46.45;99595.31;4498091;31;33392;-66
2023/07/05 07:51:36;;;;;;;9.50;6.40;;;;;;;27.09;46.41;99601.62;4493502;31;33973;-70
2023/07/05 07:54:08;;;;;;;8.75;6.03;;;;;;;27.09;46.41;99596.16;4499282;31;33705;-69
2023/07/05 07:56:36;;;;;;;8.98;6.20;;;;;;;27.10;46.37;99606.03;4496385;31;34362;-71
2023/07/05 07:59:07;;;;;;;10.40;6.68;;;;;;;27.09;46.36;99590.69;4499568;31;33825;-67
2023/07/05 08:01:36;;;;;;;10.98;5.80;;;;;;;27.12;46.31;99590.16;4500897;31;34842;-69
2023/07/05 08:04:05;;;;;;;9.82;6.50;;;;;;;27.13;46.28;99585.50;4500525;31;34849;-67
2023/07/05 08:06:34;;;;;;;13.70;6.93;;;;;;;27.14;46.26;99590.72;4499421;31;34224;-66
2023/07/05 08:09:06;;;;;;;14.75;6.72;;;;;;;27.14;46.37;99595.34;4500763;31;33895;-67
2023/07/05 08:11:34;;;;;;;10.45;6.10;;;;;;;27.16;46.32;99599.50;4500340;31;34041;-67
2023/07/05 08:14:02;;;;;;;9.40;6.12;;;;;;;27.17;46.28;99601.16;4483817;31;34514;-66
2023/07/05 08:16:30;;;;;;;10.65;5.93;;;;;;;27.16;46.26;99596.78;4499373;31;33424;-67
2023/07/05 08:18:58;;;;;;;11.00;5.95;;;;;;;27.18;46.26;99594.59;4500106;31;33533;-67
2023/07/05 08:21:25;;;;;;;10.40;6.22;;;;;;;27.19;46.26;99598.19;4500441;31;33943;-67
2023/07/05 08:23:53;;;;;;;10.05;6.22;;;;;;;27.19;46.26;99601.75;4500495;31;34543;-66
2023/07/05 08:26:21;;;;;;;11.60;5.93;;;;;;;27.19;46.26;99588.06;4492851;31;34060;-69
2023/07/05 08:28:48;;;;;;;10.52;6.50;;;;;;;27.21;46.23;99594.09;4499475;31;34903;-70
2023/07/05 08:31:16;;;;;;;9.93;6.00;;;;;;;27.24;46.26;99583.72;4500273;31;33986;-67
2023/07/05 08:33:44;;;;;;;12.80;6.37;;;;;;;27.25;46.23;99593.59;4494290;31;33466;-70
2023/07/05 08:36:12;;;;;;;10.77;6.50;;;;;;;27.24;46.26;99590.03;4496081;31;33466;-70
2023/07/05 08:38:48;;;;;;;10.15;6.43;;;;;;;27.24;46.26;99589.19;4500376;31;33941;-70
2023/07/05 08:41:38;;;;;;;10.57;6.60;;;;;;;27.23;46.25;99591.09;4499941;31;33978;-70
2023/07/05 08:44:24;;;;;;;9.63;6.27;;;;;;;27.25;46.23;99599.06;4483808;32;33926;-72
2023/07/05 08:47:22;;;;;;;12.85;6.53;;;;;;;27.27;46.15;99594.12;4483733;32;33151;-70
2023/07/05 08:50:01;;;;;;;9.88;5.90;;;;;;;27.27;46.14;99599.63;4483577;32;33831;-70
2023/07/05 08:52:45;;;;;;;8.88;6.18;;;;;;;27.26;46.17;99597.97;4496133;31;34793;-67
2023/07/05 08:55:17;;;;;;;10.85;6.68;;;;;;;27.25;46.15;99599.88;4500514;31;34750;-71
2023/07/05 08:57:46;;;;;;;12.43;6.80;;;;;;;27.24;46.15;99598.25;4498475;31;34282;-68
2023/07/05 09:00:16;;;;;;;8.05;5.78;;;;;;;27.24;46.15;99597.41;4499564;31;33933;-70
2023/07/05 09:02:43;;;;;;;9.30;5.70;;;;;;;27.26;46.12;99600.72;4499468;31;34801;-70
2023/07/05 09:05:16;;;;;;;9.57;6.55;;;;;;;27.25;46.11;99605.37;4499393;31;33816;-69
2023/07/05 09:07:45;;;;;;;9.95;6.45;;;;;;;27.25;46.12;99597.16;4500449;31;33876;-71
2023/07/05 09:10:19;;;;;;;10.02;6.85;;;;;;;27.26;46.10;99593.31;4499434;31;34228;-71
2023/07/05 09:12:56;;;;;;;11.25;6.25;;;;;;;27.26;46.09;99595.22;4499364;31;35300;-70
2023/07/05 09:15:29;;;;;;;12.00;6.93;;;;;;;27.27;46.08;99591.41;4499420;31;34042;-72
2023/07/05 09:18:04;;;;;;;9.43;6.07;;;;;;;27.26;46.07;99592.50;4500631;31;34031;-70
2023/07/05 09:20:54;;;;;;;10.10;6.47;;;;;;;27.28;46.04;99591.16;4499297;31;33604;-72
2023/07/05 09:23:40;;;;;;;9.95;6.50;;;;;;;27.27;46.06;99594.12;4500308;31;34061;-70
2023/07/05 09:26:15;;;;;;;9.13;6.35;;;;;;;27.29;46.00;99581.03;4499399;31;34494;-71
2023/07/05 09:28:47;;;;;;;9.73;6.65;;;;;;;27.29;45.99;99583.78;4476844;32;33066;-71
2023/07/05 09:31:15;;;;;;;9.43;6.20;;;;;;;27.27;46.02;99585.94;4483371;32;34011;-71
2023/07/05 09:33:49;;;;;;;9.30;6.37;;;;;;;27.29;45.99;99590.06;4484638;32;34158;-71
2023/07/05 09:36:24;;;;;;;8.98;5.93;;;;;;;27.28;46.01;99579.34;4470948;32;34513;-71
2023/07/05 09:39:21;;;;;;;11.35;6.57;;;;;;;27.28;46.00;99582.94;4484626;32;34079;-72
2023/07/05 09:41:50;;;;;;;12.18;6.80;;;;;;;27.32;45.96;99578.59;4483379;32;34097;-72
2023/07/05 09:44:18;;;;;;;13.90;7.10;;;;;;;27.29;46.00;99578.28;4483625;32;34041;-71
2023/07/05 09:46:45;;;;;;;11.00;7.30;;;;;;;27.30;45.99;99577.19;4470462;32;34846;-72
2023/07/05 09:49:14;;;;;;;10.65;7.47;;;;;;;27.30;45.99;99580.75;4484560;32;33360;-70
2023/07/05 09:51:46;;;;;;;11.32;6.53;;;;;;;27.29;46.00;99576.38;4470187;32;33971;-71
2023/07/05 09:54:24;;;;;;;12.35;6.60;;;;;;;27.30;46.00;99568.97;4484457;32;33896;-69
2023/07/05 09:57:04;;;;;;;11.27;7.45;;;;;;;27.33;45.95;99573.97;4470482;32;33672;-70
2023/07/05 09:59:33;;;;;;;9.82;6.47;;;;;;;27.31;45.96;99544.06;4484722;32;33549;-68
2023/07/05 10:02:12;;;;;;;11.82;6.37;;;;;;;27.32;45.92;99544.88;4483204;32;33984;-68
2023/07/05 10:05:15;;;;;;;10.50;6.43;;;;;;;27.34;45.91;99550.94;4484133;32;34026;-71
2023/07/05 10:07:55;;;;;;;10.48;6.75;;;;;;;27.36;45.85;99548.75;4483853;32;33512;-70
2023/07/05 10:10:27;;;;;;;;;;;;;;;27.34;45.92;99542.72;4484453;32;33486;-71
2023/07/05 10:13:01;;;;;;;8.45;6.15;;;;;;;27.43;45.72;99568.56;4484066;32;34248;-70
2023/07/05 10:15:28;;;;;;;10.30;6.55;;;;;;;27.34;45.94;99570.94;4484219;32;34484;-70
2023/07/05 10:17:57;;;;;;;10.45;6.53;;;;;;;27.35;45.98;99566.28;4484035;32;34426;-71
2023/07/05 10:20:36;;;;;;;9.77;6.07;;;;;;;27.34;46.02;99568.22;4484151;31;34262;-69
2023/07/05 10:23:06;;;;;;;10.87;6.07;;;;;;;27.35;46.01;99556.16;4488702;31;33847;-71
2023/07/05 10:25:34;;;;;;;13.75;6.78;;;;;;;27.37;46.02;99562.22;4513835;31;34518;-71
2023/07/05 10:28:04;;;;;;;10.77;7.05;;;;;;;27.41;46.01;99562.50;4488269;31;33754;-71
2023/07/05 10:30:33;;;;;;;9.13;6.72;;;;;;;27.41;46.03;99560.59;4485022;31;33339;-72
2023/07/05 10:33:17;;;;;;;10.32;6.70;;;;;;;27.42;46.02;99553.22;4498371;31;34473;-70
2023/07/05 10:35:47;;;;;;;10.52;6.65;;;;;;;27.43;46.05;99563.09;4482336;31;34835;-71
2023/07/05 10:38:29;;;;;;;12.48;6.50;;;;;;;27.42;46.06;99547.75;4498833;31;34979;-70
2023/07/05 10:41:02;;;;;;;11.00;6.30;;;;;;;27.45;46.01;99549.94;4498303;31;34342;-71
2023/07/05 10:43:31;;;;;;;11.80;6.50;;;;;;;27.41;46.08;99549.63;4484786;31;33952;-71
2023/07/05 10:45:59;;;;;;;9.18;6.03;;;;;;;27.41;46.07;99551.56;4498053;31;34780;-71
2023/07/05 10:48:40;;;;;;;10.52;6.43;;;;;;;27.42;46.00;99540.34;4499351;31;34713;-69
2023/07/05 10:51:16;;;;;;;11.40;6.25;;;;;;;27.42;45.96;99550.50;4498900;31;33199;-67
2023/07/05 10:53:49;;;;;;;9.30;6.32;;;;;;;27.43;45.94;99549.41;4497933;31;34019;-71
2023/07/05 10:56:20;;;;;;;12.25;6.75;;;;;;;27.42;45.94;99548.56;4481797;32;33914;-71
2023/07/05 10:59:25;;;;;;;9.43;5.97;;;;;;;27.42;45.94;99547.75;4482320;32;34565;-70
2023/07/05 11:01:58;;;;;;;9.88;6.00;;;;;;;27.44;45.89;99540.09;4483775;32;34414;-69
2023/07/05 11:04:29;;;;;;;9.40;6.40;;;;;;;27.41;45.94;99544.16;4481766;32;34402;-71
2023/07/05 11:07:10;;;;;;;10.68;6.75;;;;;;;27.42;45.93;99537.63;4469482;32;34135;-71
2023/07/05 11:09:38;;;;;;;11.38;6.70;;;;;;;27.43;45.93;99542.00;4469737;32;33672;-72
2023/07/05 11:12:20;;;;;;;10.40;6.37;;;;;;;27.44;45.95;99529.13;4481654;32;33118;-71
2023/07/05 11:14:48;;;;;;;8.55;6.40;;;;;;;27.45;45.94;99530.78;4469483;32;34505;-71
2023/07/05 11:17:34;;;;;;;11.75;6.70;;;;;;;27.44;45.94;99521.72;4480915;32;34042;-71
2023/07/05 11:20:06;;;;;;;11.10;6.80;;;;;;;27.46;45.90;99516.78;4483511;32;33434;-71
2023/07/05 11:22:36;;;;;;;12.32;7.95;;;;;;;27.45;45.89;99517.06;4481908;32;33346;-71
2023/07/05 11:25:07;;;;;;;10.65;6.97;;;;;;;27.45;45.91;99522.56;4483189;32;34177;-71
2023/07/05 11:27:36;;;;;;;9.88;6.60;;;;;;;27.45;45.89;99517.06;4496210;31;33751;-70
2023/07/05 11:30:04;;;;;;;10.68;7.10;;;;;;;27.45;45.89;99515.16;4498502;31;33868;-72
2023/07/05 11:33:06;;;;;;;12.35;6.95;;;;;;;27.45;45.91;99512.41;4497065;31;34076;-71
2023/07/05 11:35:51;;;;;;;11.02;7.35;;;;;;;27.48;45.88;99513.81;4482898;32;34780;-72
2023/07/05 11:38:37;;;;;;;10.40;6.97;;;;;;;27.47;45.93;99514.91;4482833;32;33818;-70
2023/07/05 11:41:28;;;;;;;9.40;6.45;;;;;;;27.48;45.90;99508.34;4485624;31;34008;-70
2023/07/05 11:44:00;;;;;;;10.00;6.80;;;;;;;27.45;45.93;99508.84;4484006;31;33466;-70
2023/07/05 11:46:38;;;;;;;13.38;7.18;;;;;;;27.47;45.94;99501.22;4470159;31;32445;-71
2023/07/05 11:49:21;;;;;;;11.98;7.35;;;;;;;27.48;45.97;99499.28;4492077;31;33537;-70